Hope, Texas
Current Conditions -  °F | °C
As of 12:51 PM on Friday 28 Nov 2014 (Local Time) from KVCT Reporting Station
Few Clouds Few Clouds  
Wind Chill: 75°   Ceiling: Unl
Heat Index: 75°   Visibility: 10mi
Dew Point: 53°   Wind: 16mph
Humidity: 46%   Direction: 180°S
Pressure: 30.22"   Gusts: 24mph
Location:  29.2421°N, 97.0692°W
Report Text: KVCT 281851Z 18014G21KT 160V220 10SM FEW046 24/12 A3022 RMK AO2 SLP232 T02390117
Loading
Personal Weather Stations






























Interactive Weather Map New forecast layout! Learn more

10-Day Weather Forecast

Advertisements
Track Severe Weather on mobile